sensor_id;sensor_type;location;lat;lon;timestamp;temperature;humidity
58517;DHT22;44308;50.810;0.284;2022-09-13T00:00:51;18.60;99.90
58517;DHT22;44308;50.810;0.284;2022-09-13T00:03:18;18.50;99.90
58517;DHT22;44308;50.810;0.284;2022-09-13T00:05:46;18.50;99.90
58517;DHT22;44308;50.810;0.284;2022-09-13T00:08:13;18.50;99.90
58517;DHT22;44308;50.810;0.284;2022-09-13T00:10:42;18.50;99.90
58517;DHT22;44308;50.810;0.284;2022-09-13T00:13:10;18.40;99.90
58517;DHT22;44308;50.810;0.284;2022-09-13T00:15:36;18.40;99.90
58517;DHT22;44308;50.810;0.284;2022-09-13T00:18:09;18.50;99.90
58517;DHT22;44308;50.810;0.284;2022-09-13T00:20:35;18.40;99.90
58517;DHT22;44308;50.810;0.284;2022-09-13T00:23:00;18.40;99.90
58517;DHT22;44308;50.810;0.284;2022-09-13T00:25:27;18.40;99.90
58517;DHT22;44308;50.810;0.284;2022-09-13T00:27:53;18.40;99.90
58517;DHT22;44308;50.810;0.284;2022-09-13T00:30:19;18.40;99.90
58517;DHT22;44308;50.810;0.284;2022-09-13T00:32:44;18.40;99.90
58517;DHT22;44308;50.810;0.284;2022-09-13T00:35:10;18.40;99.90
58517;DHT22;44308;50.810;0.284;2022-09-13T00:37:36;18.40;99.90
58517;DHT22;44308;50.810;0.284;2022-09-13T00:40:02;18.40;99.90
58517;DHT22;44308;50.810;0.284;2022-09-13T00:42:30;18.30;99.90
58517;DHT22;44308;50.810;0.284;2022-09-13T00:47:55;18.30;99.90
58517;DHT22;44308;50.810;0.284;2022-09-13T00:50:44;18.20;99.90
58517;DHT22;44308;50.810;0.284;2022-09-13T00:53:20;18.20;99.90
58517;DHT22;44308;50.810;0.284;2022-09-13T00:58:31;18.20;99.90
58517;DHT22;44308;50.810;0.284;2022-09-13T01:00:59;18.20;99.90
58517;DHT22;44308;50.810;0.284;2022-09-13T01:03:29;18.20;99.90
58517;DHT22;44308;50.810;0.284;2022-09-13T01:06:00;18.20;99.90
58517;DHT22;44308;50.810;0.284;2022-09-13T01:08:28;18.20;99.90
58517;DHT22;44308;50.810;0.284;2022-09-13T01:10:57;18.20;99.90
58517;DHT22;44308;50.810;0.284;2022-09-13T01:13:30;18.20;99.90
58517;DHT22;44308;50.810;0.284;2022-09-13T01:15:59;18.20;99.90
58517;DHT22;44308;50.810;0.284;2022-09-13T01:18:25;18.20;99.90
58517;DHT22;44308;50.810;0.284;2022-09-13T01:46:05;18.00;99.90
58517;DHT22;44308;50.810;0.284;2022-09-13T01:48:51;18.00;99.90
58517;DHT22;44308;50.810;0.284;2022-09-13T01:51:31;17.90;99.90
58517;DHT22;44308;50.810;0.284;2022-09-13T01:54:17;17.90;99.90
58517;DHT22;44308;50.810;0.284;2022-09-13T01:59:23;17.90;99.90
58517;DHT22;44308;50.810;0.284;2022-09-13T02:02:01;17.90;99.90
58517;DHT22;44308;50.810;0.284;2022-09-13T02:04:32;18.00;99.90
58517;DHT22;44308;50.810;0.284;2022-09-13T02:07:11;18.00;99.90
58517;DHT22;44308;50.810;0.284;2022-09-13T02:09:42;18.00;99.90
58517;DHT22;44308;50.810;0.284;2022-09-13T02:12:15;18.00;99.90
58517;DHT22;44308;50.810;0.284;2022-09-13T02:14:43;17.90;99.90
58517;DHT22;44308;50.810;0.284;2022-09-13T02:17:13;18.00;99.90
58517;DHT22;44308;50.810;0.284;2022-09-13T02:19:56;18.00;99.90
58517;DHT22;44308;50.810;0.284;2022-09-13T02:22:34;17.90;99.90
58517;DHT22;44308;50.810;0.284;2022-09-13T02:25:12;17.90;99.90
58517;DHT22;44308;50.810;0.284;2022-09-13T02:27:39;17.90;99.90
58517;DHT22;44308;50.810;0.284;2022-09-13T02:30:08;17.90;99.90
58517;DHT22;44308;50.810;0.284;2022-09-13T02:35:20;17.80;99.90
58517;DHT22;44308;50.810;0.284;2022-09-13T02:37:57;17.90;99.90
58517;DHT22;44308;50.810;0.284;2022-09-13T02:40:28;17.80;99.90
58517;DHT22;44308;50.810;0.284;2022-09-13T02:43:05;17.80;99.90
58517;DHT22;44308;50.810;0.284;2022-09-13T02:45:48;17.80;99.90
58517;DHT22;44308;50.810;0.284;2022-09-13T02:48:27;17.80;99.90
58517;DHT22;44308;50.810;0.284;2022-09-13T02:51:07;17.70;99.90
58517;DHT22;44308;50.810;0.284;2022-09-13T02:53:41;17.70;99.90
58517;DHT22;44308;50.810;0.284;2022-09-13T02:56:18;17.70;99.90
58517;DHT22;44308;50.810;0.284;2022-09-13T03:01:19;17.70;99.90
58517;DHT22;44308;50.810;0.284;2022-09-13T03:03:46;17.70;99.90
58517;DHT22;44308;50.810;0.284;2022-09-13T03:06:12;17.80;99.90
58517;DHT22;44308;50.810;0.284;2022-09-13T03:08:38;17.70;99.90
58517;DHT22;44308;50.810;0.284;2022-09-13T03:30:35;17.80;99.90
58517;DHT22;44308;50.810;0.284;2022-09-13T03:33:19;17.80;99.90
58517;DHT22;44308;50.810;0.284;2022-09-13T03:36:03;17.80;99.90
58517;DHT22;44308;50.810;0.284;2022-09-13T03:38:42;17.80;99.90
58517;DHT22;44308;50.810;0.284;2022-09-13T03:41:17;17.80;99.90
58517;DHT22;44308;50.810;0.284;2022-09-13T03:43:59;17.80;99.90
58517;DHT22;44308;50.810;0.284;2022-09-13T03:46:35;17.80;99.90
58517;DHT22;44308;50.810;0.284;2022-09-13T03:49:08;17.80;99.90
58517;DHT22;44308;50.810;0.284;2022-09-13T03:51:36;17.80;99.90
58517;DHT22;44308;50.810;0.284;2022-09-13T03:54:06;17.90;99.90
58517;DHT22;44308;50.810;0.284;2022-09-13T03:56:33;17.90;99.90
58517;DHT22;44308;50.810;0.284;2022-09-13T03:58:59;17.90;99.90
58517;DHT22;44308;50.810;0.284;2022-09-13T04:01:25;17.90;99.90
58517;DHT22;44308;50.810;0.284;2022-09-13T04:04:09;18.00;99.90
58517;DHT22;44308;50.810;0.284;2022-09-13T04:06:35;17.90;99.90
58517;DHT22;44308;50.810;0.284;2022-09-13T04:09:01;18.00;99.90
58517;DHT22;44308;50.810;0.284;2022-09-13T04:11:26;18.00;99.90
58517;DHT22;44308;50.810;0.284;2022-09-13T04:13:52;18.00;99.90
58517;DHT22;44308;50.810;0.284;2022-09-13T04:16:18;18.00;99.90
58517;DHT22;44308;50.810;0.284;2022-09-13T04:18:44;18.10;99.90
58517;DHT22;44308;50.810;0.284;2022-09-13T04:21:09;18.10;99.90
58517;DHT22;44308;50.810;0.284;2022-09-13T04:23:35;18.20;99.90
58517;DHT22;44308;50.810;0.284;2022-09-13T04:26:04;18.30;99.90
58517;DHT22;44308;50.810;0.284;2022-09-13T04:28:30;18.30;99.90
58517;DHT22;44308;50.810;0.284;2022-09-13T04:30:56;18.30;99.90
58517;DHT22;44308;50.810;0.284;2022-09-13T04:33:22;18.40;99.90
58517;DHT22;44308;50.810;0.284;2022-09-13T04:35:56;18.40;99.90
58517;DHT22;44308;50.810;0.284;2022-09-13T04:38:22;18.40;99.90
58517;DHT22;44308;50.810;0.284;2022-09-13T04:40:52;18.40;99.90
58517;DHT22;44308;50.810;0.284;2022-09-13T04:43:18;18.50;99.90
58517;DHT22;44308;50.810;0.284;2022-09-13T04:45:44;18.50;99.90
58517;DHT22;44308;50.810;0.284;2022-09-13T04:48:11;18.50;99.90
58517;DHT22;44308;50.810;0.284;2022-09-13T04:50:36;18.50;99.90
58517;DHT22;44308;50.810;0.284;2022-09-13T04:53:02;18.60;99.90
58517;DHT22;44308;50.810;0.284;2022-09-13T04:55:28;18.60;99.90
58517;DHT22;44308;50.810;0.284;2022-09-13T04:57:54;18.60;99.90
58517;DHT22;44308;50.810;0.284;2022-09-13T05:00:21;18.60;99.90
58517;DHT22;44308;50.810;0.284;2022-09-13T05:02:47;18.60;99.90
58517;DHT22;44308;50.810;0.284;2022-09-13T05:05:12;18.60;99.90
58517;DHT22;44308;50.810;0.284;2022-09-13T05:07:39;18.70;99.90
58517;DHT22;44308;50.810;0.284;2022-09-13T05:10:05;18.70;99.90
58517;DHT22;44308;50.810;0.284;2022-09-13T05:12:31;18.70;99.90
58517;DHT22;44308;50.810;0.284;2022-09-13T05:14:57;18.70;99.90
58517;DHT22;44308;50.810;0.284;2022-09-13T05:17:23;18.70;99.90
58517;DHT22;44308;50.810;0.284;2022-09-13T05:19:48;18.80;99.90
58517;DHT22;44308;50.810;0.284;2022-09-13T05:22:14;18.70;99.90
58517;DHT22;44308;50.810;0.284;2022-09-13T05:24:40;18.70;99.90
58517;DHT22;44308;50.810;0.284;2022-09-13T05:27:06;18.70;99.90
58517;DHT22;44308;50.810;0.284;2022-09-13T05:29:32;18.70;99.90
58517;DHT22;44308;50.810;0.284;2022-09-13T05:31:57;18.70;99.90
58517;DHT22;44308;50.810;0.284;2022-09-13T05:34:24;18.80;99.90
58517;DHT22;44308;50.810;0.284;2022-09-13T05:36:50;18.80;99.90
58517;DHT22;44308;50.810;0.284;2022-09-13T05:39:16;18.80;99.90
58517;DHT22;44308;50.810;0.284;2022-09-13T05:41:42;18.90;99.90
58517;DHT22;44308;50.810;0.284;2022-09-13T05:44:09;18.80;99.90
58517;DHT22;44308;50.810;0.284;2022-09-13T05:46:36;18.90;99.90
58517;DHT22;44308;50.810;0.284;2022-09-13T05:49:01;18.90;99.90
58517;DHT22;44308;50.810;0.284;2022-09-13T05:51:27;18.90;99.90
58517;DHT22;44308;50.810;0.284;2022-09-13T05:53:54;18.90;99.90
58517;DHT22;44308;50.810;0.284;2022-09-13T05:56:25;18.90;99.90
58517;DHT22;44308;50.810;0.284;2022-09-13T05:58:52;18.90;99.90
58517;DHT22;44308;50.810;0.284;2022-09-13T06:01:20;18.90;99.90
58517;DHT22;44308;50.810;0.284;2022-09-13T06:03:50;18.90;99.90
58517;DHT22;44308;50.810;0.284;2022-09-13T06:06:16;18.90;99.90
58517;DHT22;44308;50.810;0.284;2022-09-13T06:08:43;19.00;99.90
58517;DHT22;44308;50.810;0.284;2022-09-13T06:11:11;19.00;99.90
58517;DHT22;44308;50.810;0.284;2022-09-13T06:13:38;19.00;99.90
58517;DHT22;44308;50.810;0.284;2022-09-13T06:19:44;19.00;99.90
58517;DHT22;44308;50.810;0.284;2022-09-13T06:22:10;19.00;99.90
58517;DHT22;44308;50.810;0.284;2022-09-13T06:24:37;19.10;99.90
58517;DHT22;44308;50.810;0.284;2022-09-13T06:27:02;19.10;99.90
58517;DHT22;44308;50.810;0.284;2022-09-13T06:29:29;19.00;99.90
58517;DHT22;44308;50.810;0.284;2022-09-13T06:31:55;19.00;99.90
58517;DHT22;44308;50.810;0.284;2022-09-13T06:34:20;19.10;99.90
58517;DHT22;44308;50.810;0.284;2022-09-13T06:36:46;19.00;99.90
58517;DHT22;44308;50.810;0.284;2022-09-13T06:39:12;19.10;99.90
58517;DHT22;44308;50.810;0.284;2022-09-13T06:41:38;19.10;99.90
58517;DHT22;44308;50.810;0.284;2022-09-13T06:44:04;19.10;99.90
58517;DHT22;44308;50.810;0.284;2022-09-13T06:46:32;19.20;99.90
58517;DHT22;44308;50.810;0.284;2022-09-13T06:49:03;19.20;99.90
58517;DHT22;44308;50.810;0.284;2022-09-13T06:51:30;19.20;99.90
58517;DHT22;44308;50.810;0.284;2022-09-13T06:53:57;19.30;99.90
58517;DHT22;44308;50.810;0.284;2022-09-13T06:56:27;19.30;99.90
58517;DHT22;44308;50.810;0.284;2022-09-13T06:59:05;19.30;99.90
58517;DHT22;44308;50.810;0.284;2022-09-13T07:01:35;19.30;99.90
58517;DHT22;44308;50.810;0.284;2022-09-13T07:04:12;19.40;99.90
58517;DHT22;44308;50.810;0.284;2022-09-13T07:06:40;19.40;99.90
58517;DHT22;44308;50.810;0.284;2022-09-13T07:09:10;19.40;99.90
58517;DHT22;44308;50.810;0.284;2022-09-13T07:11:38;19.40;99.90
58517;DHT22;44308;50.810;0.284;2022-09-13T07:14:04;19.50;99.90
58517;DHT22;44308;50.810;0.284;2022-09-13T07:16:36;19.40;99.90
58517;DHT22;44308;50.810;0.284;2022-09-13T07:19:05;19.50;99.90
58517;DHT22;44308;50.810;0.284;2022-09-13T07:21:32;19.50;99.90
58517;DHT22;44308;50.810;0.284;2022-09-13T07:23:58;19.50;99.90
58517;DHT22;44308;50.810;0.284;2022-09-13T07:26:25;19.50;99.90
58517;DHT22;44308;50.810;0.284;2022-09-13T07:28:57;19.60;99.90
58517;DHT22;44308;50.810;0.284;2022-09-13T07:31:25;19.60;99.90
58517;DHT22;44308;50.810;0.284;2022-09-13T07:33:57;19.60;99.90
58517;DHT22;44308;50.810;0.284;2022-09-13T07:36:24;19.50;99.90
58517;DHT22;44308;50.810;0.284;2022-09-13T07:38:49;19.60;99.90
58517;DHT22;44308;50.810;0.284;2022-09-13T07:41:23;19.70;99.90
58517;DHT22;44308;50.810;0.284;2022-09-13T07:43:49;19.70;99.90
58517;DHT22;44308;50.810;0.284;2022-09-13T07:46:27;19.80;99.90
58517;DHT22;44308;50.810;0.284;2022-09-13T07:48:55;19.80;99.90
58517;DHT22;44308;50.810;0.284;2022-09-13T07:51:23;19.80;99.90
58517;DHT22;44308;50.810;0.284;2022-09-13T07:53:50;19.90;99.90
58517;DHT22;44308;50.810;0.284;2022-09-13T07:56:18;19.90;99.90
58517;DHT22;44308;50.810;0.284;2022-09-13T07:58:46;19.90;99.90
58517;DHT22;44308;50.810;0.284;2022-09-13T08:01:18;19.90;99.90
58517;DHT22;44308;50.810;0.284;2022-09-13T08:03:56;19.90;99.90
58517;DHT22;44308;50.810;0.284;2022-09-13T08:06:24;19.90;99.90
58517;DHT22;44308;50.810;0.284;2022-09-13T08:08:50;19.90;99.90
58517;DHT22;44308;50.810;0.284;2022-09-13T08:11:22;19.90;99.90
58517;DHT22;44308;50.810;0.284;2022-09-13T08:13:49;19.90;99.90
58517;DHT22;44308;50.810;0.284;2022-09-13T08:16:18;19.90;99.90
58517;DHT22;44308;50.810;0.284;2022-09-13T08:18:45;19.90;99.90
58517;DHT22;44308;50.810;0.284;2022-09-13T08:21:11;19.90;99.90
58517;DHT22;44308;50.810;0.284;2022-09-13T08:23:37;19.80;99.90
58517;DHT22;44308;50.810;0.284;2022-09-13T08:26:03;19.90;99.90
58517;DHT22;44308;50.810;0.284;2022-09-13T08:28:31;19.90;99.90
58517;DHT22;44308;50.810;0.284;2022-09-13T08:31:03;19.90;99.90
58517;DHT22;44308;50.810;0.284;2022-09-13T08:33:29;20.00;99.90
58517;DHT22;44308;50.810;0.284;2022-09-13T08:35:55;20.00;99.90
58517;DHT22;44308;50.810;0.284;2022-09-13T08:38:22;20.00;99.90
58517;DHT22;44308;50.810;0.284;2022-09-13T08:41:01;20.00;99.90
58517;DHT22;44308;50.810;0.284;2022-09-13T08:48:52;20.20;99.90
58517;DHT22;44308;50.810;0.284;2022-09-13T09:00:41;20.40;99.90
58517;DHT22;44308;50.810;0.284;2022-09-13T09:05:50;20.50;99.90
58517;DHT22;44308;50.810;0.284;2022-09-13T09:08:32;20.60;99.90
58517;DHT22;44308;50.810;0.284;2022-09-13T09:11:08;20.60;99.90
58517;DHT22;44308;50.810;0.284;2022-09-13T09:13:56;20.60;99.90
58517;DHT22;44308;50.810;0.284;2022-09-13T09:16:49;20.60;99.90
58517;DHT22;44308;50.810;0.284;2022-09-13T09:19:18;20.80;99.90
58517;DHT22;44308;50.810;0.284;2022-09-13T09:21:46;20.90;99.90
58517;DHT22;44308;50.810;0.284;2022-09-13T09:24:23;20.90;99.90
58517;DHT22;44308;50.810;0.284;2022-09-13T09:26:51;20.80;99.90
58517;DHT22;44308;50.810;0.284;2022-09-13T09:29:24;20.70;99.90
58517;DHT22;44308;50.810;0.284;2022-09-13T09:37:24;20.70;99.90
58517;DHT22;44308;50.810;0.284;2022-09-13T09:39:56;20.70;99.90
58517;DHT22;44308;50.810;0.284;2022-09-13T09:42:25;20.80;99.90
58517;DHT22;44308;50.810;0.284;2022-09-13T09:47:49;20.90;99.90
58517;DHT22;44308;50.810;0.284;2022-09-13T09:52:55;20.80;99.90
58517;DHT22;44308;50.810;0.284;2022-09-13T09:58:12;20.70;99.90
58517;DHT22;44308;50.810;0.284;2022-09-13T10:00:56;20.60;99.90
58517;DHT22;44308;50.810;0.284;2022-09-13T10:03:28;20.60;99.90
58517;DHT22;44308;50.810;0.284;2022-09-13T10:06:13;20.60;99.90
58517;DHT22;44308;50.810;0.284;2022-09-13T10:08:41;20.60;99.90
58517;DHT22;44308;50.810;0.284;2022-09-13T10:11:08;20.50;99.90
58517;DHT22;44308;50.810;0.284;2022-09-13T10:13:35;20.50;99.90
58517;DHT22;44308;50.810;0.284;2022-09-13T10:16:05;20.40;99.90
58517;DHT22;44308;50.810;0.284;2022-09-13T10:18:34;20.40;99.90
58517;DHT22;44308;50.810;0.284;2022-09-13T10:21:05;20.30;99.90
58517;DHT22;44308;50.810;0.284;2022-09-13T10:23:33;20.30;99.90
58517;DHT22;44308;50.810;0.284;2022-09-13T10:26:12;20.30;99.90
58517;DHT22;44308;50.810;0.284;2022-09-13T10:29:07;20.30;99.90
58517;DHT22;44308;50.810;0.284;2022-09-13T10:31:38;20.40;99.90
58517;DHT22;44308;50.810;0.284;2022-09-13T10:39:36;20.70;99.90
58517;DHT22;44308;50.810;0.284;2022-09-13T10:42:04;20.90;99.90
58517;DHT22;44308;50.810;0.284;2022-09-13T10:44:44;20.90;99.90
58517;DHT22;44308;50.810;0.284;2022-09-13T10:47:33;21.00;99.90
58517;DHT22;44308;50.810;0.284;2022-09-13T10:50:21;21.00;99.90
58517;DHT22;44308;50.810;0.284;2022-09-13T10:52:51;20.90;99.90
58517;DHT22;44308;50.810;0.284;2022-09-13T10:57:44;20.70;99.90
58517;DHT22;44308;50.810;0.284;2022-09-13T11:00:13;20.80;99.90
58517;DHT22;44308;50.810;0.284;2022-09-13T11:05:33;20.60;99.90
58517;DHT22;44308;50.810;0.284;2022-09-13T11:10:48;20.70;99.90
58517;DHT22;44308;50.810;0.284;2022-09-13T11:16:15;20.80;99.90
58517;DHT22;44308;50.810;0.284;2022-09-13T11:27:27;20.90;99.90
58517;DHT22;44308;50.810;0.284;2022-09-13T11:32:58;20.70;99.90
58517;DHT22;44308;50.810;0.284;2022-09-13T11:57:56;20.80;99.90
58517;DHT22;44308;50.810;0.284;2022-09-13T12:00:32;20.90;99.90
58517;DHT22;44308;50.810;0.284;2022-09-13T12:05:58;21.20;99.90
58517;DHT22;44308;50.810;0.284;2022-09-13T12:08:31;21.20;99.90
58517;DHT22;44308;50.810;0.284;2022-09-13T12:11:12;21.20;99.90
58517;DHT22;44308;50.810;0.284;2022-09-13T12:13:57;21.20;99.90
58517;DHT22;44308;50.810;0.284;2022-09-13T12:16:38;21.00;99.90
58517;DHT22;44308;50.810;0.284;2022-09-13T12:21:39;20.90;99.90
58517;DHT22;44308;50.810;0.284;2022-09-13T12:27:44;20.60;99.90
58517;DHT22;44308;50.810;0.284;2022-09-13T12:32:30;20.50;99.90
58517;DHT22;44308;50.810;0.284;2022-09-13T12:40:58;20.40;99.90
58517;DHT22;44308;50.810;0.284;2022-09-13T12:46:17;20.40;99.90
58517;DHT22;44308;50.810;0.284;2022-09-13T12:59:58;20.20;99.90
58517;DHT22;44308;50.810;0.284;2022-09-13T13:02:36;20.20;99.90
58517;DHT22;44308;50.810;0.284;2022-09-13T13:05:15;20.30;99.90
58517;DHT22;44308;50.810;0.284;2022-09-13T13:07:57;20.30;99.90
58517;DHT22;44308;50.810;0.284;2022-09-13T13:10:30;20.50;99.90
58517;DHT22;44308;50.810;0.284;2022-09-13T13:13:08;20.50;99.90
58517;DHT22;44308;50.810;0.284;2022-09-13T13:23:37;20.60;99.90
58517;DHT22;44308;50.810;0.284;2022-09-13T13:36:48;20.40;99.90
58517;DHT22;44308;50.810;0.284;2022-09-13T13:41:59;20.40;99.90
58517;DHT22;44308;50.810;0.284;2022-09-13T13:57:39;20.30;99.90
58517;DHT22;44308;50.810;0.284;2022-09-13T14:00:17;20.20;99.90
58517;DHT22;44308;50.810;0.284;2022-09-13T14:14:59;20.30;99.90
58517;DHT22;44308;50.810;0.284;2022-09-13T14:20:09;20.30;99.90
58517;DHT22;44308;50.810;0.284;2022-09-13T14:22:36;20.20;99.90
58517;DHT22;44308;50.810;0.284;2022-09-13T14:25:23;20.20;99.90
58517;DHT22;44308;50.810;0.284;2022-09-13T14:27:51;20.20;99.90
58517;DHT22;44308;50.810;0.284;2022-09-13T14:30:27;20.20;99.90
58517;DHT22;44308;50.810;0.284;2022-09-13T14:32:56;20.20;99.90
58517;DHT22;44308;50.810;0.284;2022-09-13T14:37:47;20.20;99.90
58517;DHT22;44308;50.810;0.284;2022-09-13T14:40:26;20.10;99.90
58517;DHT22;44308;50.810;0.284;2022-09-13T14:42:54;20.00;99.90
58517;DHT22;44308;50.810;0.284;2022-09-13T14:45:26;20.00;99.90
58517;DHT22;44308;50.810;0.284;2022-09-13T14:48:16;19.90;99.90
58517;DHT22;44308;50.810;0.284;2022-09-13T14:51:16;19.90;99.90
58517;DHT22;44308;50.810;0.284;2022-09-13T14:53:45;20.00;99.90
58517;DHT22;44308;50.810;0.284;2022-09-13T14:56:33;20.10;99.90
58517;DHT22;44308;50.810;0.284;2022-09-13T14:59:04;20.00;99.90
58517;DHT22;44308;50.810;0.284;2022-09-13T15:01:34;20.10;99.90
58517;DHT22;44308;50.810;0.284;2022-09-13T15:04:02;20.10;99.90
58517;DHT22;44308;50.810;0.284;2022-09-13T15:06:31;20.10;99.90
58517;DHT22;44308;50.810;0.284;2022-09-13T15:09:25;20.10;99.90
58517;DHT22;44308;50.810;0.284;2022-09-13T15:14:27;20.20;99.90
58517;DHT22;44308;50.810;0.284;2022-09-13T15:19:36;20.20;99.90
58517;DHT22;44308;50.810;0.284;2022-09-13T15:22:13;20.20;99.90
58517;DHT22;44308;50.810;0.284;2022-09-13T15:24:45;20.20;99.90
58517;DHT22;44308;50.810;0.284;2022-09-13T15:27:24;20.10;99.90
58517;DHT22;44308;50.810;0.284;2022-09-13T15:29:55;20.10;99.90
58517;DHT22;44308;50.810;0.284;2022-09-13T15:32:41;20.10;99.90
58517;DHT22;44308;50.810;0.284;2022-09-13T15:35:26;20.00;99.90
58517;DHT22;44308;50.810;0.284;2022-09-13T15:38:06;20.00;99.90
58517;DHT22;44308;50.810;0.284;2022-09-13T15:40:47;19.90;99.90
58517;DHT22;44308;50.810;0.284;2022-09-13T15:43:22;19.90;99.90
58517;DHT22;44308;50.810;0.284;2022-09-13T15:45:48;19.90;99.90
58517;DHT22;44308;50.810;0.284;2022-09-13T15:48:26;19.80;99.90
58517;DHT22;44308;50.810;0.284;2022-09-13T15:51:11;19.80;99.90
58517;DHT22;44308;50.810;0.284;2022-09-13T15:53:40;19.90;99.90
58517;DHT22;44308;50.810;0.284;2022-09-13T15:56:07;19.80;99.90
58517;DHT22;44308;50.810;0.284;2022-09-13T15:58:35;19.80;99.90
58517;DHT22;44308;50.810;0.284;2022-09-13T16:01:01;19.90;99.90
58517;DHT22;44308;50.810;0.284;2022-09-13T16:03:27;19.80;99.90
58517;DHT22;44308;50.810;0.284;2022-09-13T16:05:55;19.80;99.90
58517;DHT22;44308;50.810;0.284;2022-09-13T16:08:21;19.80;99.90
58517;DHT22;44308;50.810;0.284;2022-09-13T16:10:47;19.80;99.90
58517;DHT22;44308;50.810;0.284;2022-09-13T16:13:15;19.70;99.90
58517;DHT22;44308;50.810;0.284;2022-09-13T16:15:41;19.60;99.90
58517;DHT22;44308;50.810;0.284;2022-09-13T16:18:07;19.60;99.90
58517;DHT22;44308;50.810;0.284;2022-09-13T16:20:33;19.50;99.90
58517;DHT22;44308;50.810;0.284;2022-09-13T16:22:58;19.50;99.90
58517;DHT22;44308;50.810;0.284;2022-09-13T16:25:24;19.40;99.90
58517;DHT22;44308;50.810;0.284;2022-09-13T16:27:50;19.40;99.90
58517;DHT22;44308;50.810;0.284;2022-09-13T16:30:19;19.40;99.90
58517;DHT22;44308;50.810;0.284;2022-09-13T16:32:45;19.40;99.90
58517;DHT22;44308;50.810;0.284;2022-09-13T16:35:11;19.30;99.90
58517;DHT22;44308;50.810;0.284;2022-09-13T16:37:38;19.30;99.90
58517;DHT22;44308;50.810;0.284;2022-09-13T16:40:05;19.30;99.90
58517;DHT22;44308;50.810;0.284;2022-09-13T16:42:31;19.20;99.90
58517;DHT22;44308;50.810;0.284;2022-09-13T16:44:57;19.20;99.90
58517;DHT22;44308;50.810;0.284;2022-09-13T16:47:23;19.20;99.90
58517;DHT22;44308;50.810;0.284;2022-09-13T16:49:49;19.10;99.90
58517;DHT22;44308;50.810;0.284;2022-09-13T16:52:15;19.10;99.90
58517;DHT22;44308;50.810;0.284;2022-09-13T16:54:40;19.10;99.90
58517;DHT22;44308;50.810;0.284;2022-09-13T16:57:07;19.00;99.90
58517;DHT22;44308;50.810;0.284;2022-09-13T16:59:35;18.90;99.90
58517;DHT22;44308;50.810;0.284;2022-09-13T17:02:00;19.00;99.90
58517;DHT22;44308;50.810;0.284;2022-09-13T17:04:26;18.80;99.90
58517;DHT22;44308;50.810;0.284;2022-09-13T17:06:52;18.80;99.90
58517;DHT22;44308;50.810;0.284;2022-09-13T17:09:18;18.80;99.90
58517;DHT22;44308;50.810;0.284;2022-09-13T17:11:45;18.70;99.90
58517;DHT22;44308;50.810;0.284;2022-09-13T17:14:12;18.70;99.90
58517;DHT22;44308;50.810;0.284;2022-09-13T17:16:51;18.70;99.90
58517;DHT22;44308;50.810;0.284;2022-09-13T17:19:25;18.60;99.90
58517;DHT22;44308;50.810;0.284;2022-09-13T17:21:52;18.50;99.90
58517;DHT22;44308;50.810;0.284;2022-09-13T17:24:18;18.50;99.90
58517;DHT22;44308;50.810;0.284;2022-09-13T17:26:44;18.40;99.90
58517;DHT22;44308;50.810;0.284;2022-09-13T17:29:11;18.40;99.90
58517;DHT22;44308;50.810;0.284;2022-09-13T17:31:37;18.40;99.90
58517;DHT22;44308;50.810;0.284;2022-09-13T17:34:03;18.40;99.90
58517;DHT22;44308;50.810;0.284;2022-09-13T17:36:29;18.40;99.90
58517;DHT22;44308;50.810;0.284;2022-09-13T17:38:56;18.40;99.90
58517;DHT22;44308;50.810;0.284;2022-09-13T17:41:23;18.40;99.90
58517;DHT22;44308;50.810;0.284;2022-09-13T17:43:49;18.40;99.90
58517;DHT22;44308;50.810;0.284;2022-09-13T17:46:17;18.30;99.90
58517;DHT22;44308;50.810;0.284;2022-09-13T17:48:46;18.30;99.90
58517;DHT22;44308;50.810;0.284;2022-09-13T17:51:14;18.30;99.90
58517;DHT22;44308;50.810;0.284;2022-09-13T17:53:54;18.30;99.90
58517;DHT22;44308;50.810;0.284;2022-09-13T17:56:23;18.20;99.90
58517;DHT22;44308;50.810;0.284;2022-09-13T17:58:50;18.20;99.90
58517;DHT22;44308;50.810;0.284;2022-09-13T18:01:16;18.10;99.90
58517;DHT22;44308;50.810;0.284;2022-09-13T18:03:42;18.10;99.90
58517;DHT22;44308;50.810;0.284;2022-09-13T18:06:10;18.00;99.90
58517;DHT22;44308;50.810;0.284;2022-09-13T18:08:37;17.90;99.90
58517;DHT22;44308;50.810;0.284;2022-09-13T18:11:09;18.00;99.90
58517;DHT22;44308;50.810;0.284;2022-09-13T18:13:35;17.90;99.90
58517;DHT22;44308;50.810;0.284;2022-09-13T18:16:21;17.90;99.90
58517;DHT22;44308;50.810;0.284;2022-09-13T18:18:48;17.80;99.90
58517;DHT22;44308;50.810;0.284;2022-09-13T18:21:14;17.90;99.90
58517;DHT22;44308;50.810;0.284;2022-09-13T18:23:43;17.90;99.90
58517;DHT22;44308;50.810;0.284;2022-09-13T18:26:14;17.80;99.90
58517;DHT22;44308;50.810;0.284;2022-09-13T18:28:40;17.90;99.90
58517;DHT22;44308;50.810;0.284;2022-09-13T18:31:14;17.80;99.90
58517;DHT22;44308;50.810;0.284;2022-09-13T18:33:40;17.80;99.90
58517;DHT22;44308;50.810;0.284;2022-09-13T18:39:47;17.80;99.90
58517;DHT22;44308;50.810;0.284;2022-09-13T18:42:13;17.80;99.90
58517;DHT22;44308;50.810;0.284;2022-09-13T18:47:43;17.80;99.90
58517;DHT22;44308;50.810;0.284;2022-09-13T18:50:09;17.80;99.90
58517;DHT22;44308;50.810;0.284;2022-09-13T18:52:34;17.70;99.90
58517;DHT22;44308;50.810;0.284;2022-09-13T18:55:03;17.70;99.90
58517;DHT22;44308;50.810;0.284;2022-09-13T18:57:28;17.60;99.90
58517;DHT22;44308;50.810;0.284;2022-09-13T18:59:54;17.70;99.90
58517;DHT22;44308;50.810;0.284;2022-09-13T19:02:20;17.60;99.90
58517;DHT22;44308;50.810;0.284;2022-09-13T19:04:46;17.60;99.90
58517;DHT22;44308;50.810;0.284;2022-09-13T19:07:12;17.50;99.90
58517;DHT22;44308;50.810;0.284;2022-09-13T19:09:38;17.50;99.90
58517;DHT22;44308;50.810;0.284;2022-09-13T19:12:03;17.50;99.90
58517;DHT22;44308;50.810;0.284;2022-09-13T19:14:30;17.50;99.90
58517;DHT22;44308;50.810;0.284;2022-09-13T19:16:58;17.50;99.90
58517;DHT22;44308;50.810;0.284;2022-09-13T19:19:28;17.40;99.90
58517;DHT22;44308;50.810;0.284;2022-09-13T19:21:59;17.30;99.90
58517;DHT22;44308;50.810;0.284;2022-09-13T19:24:25;17.30;99.90
58517;DHT22;44308;50.810;0.284;2022-09-13T19:26:51;17.30;99.90
58517;DHT22;44308;50.810;0.284;2022-09-13T19:29:19;17.30;99.90
58517;DHT22;44308;50.810;0.284;2022-09-13T19:31:46;17.30;99.90
58517;DHT22;44308;50.810;0.284;2022-09-13T19:34:13;17.30;99.90
58517;DHT22;44308;50.810;0.284;2022-09-13T19:36:39;17.20;99.90
58517;DHT22;44308;50.810;0.284;2022-09-13T19:39:07;17.20;99.90
58517;DHT22;44308;50.810;0.284;2022-09-13T19:41:34;17.20;99.90
58517;DHT22;44308;50.810;0.284;2022-09-13T19:44:02;17.20;99.90
58517;DHT22;44308;50.810;0.284;2022-09-13T19:46:34;17.20;99.90